sensor_id;sensor_type;location;lat;lon;timestamp;pressure;altitude;pressure_sealevel;temperature;humidity
64388;BME280;50709;52.648;4.764;2023-02-04T00:00:12;103327.47;;;15.26;55.64
64388;BME280;50709;52.648;4.764;2023-02-04T00:02:39;103280.38;;;14.99;56.46
64388;BME280;50709;52.648;4.764;2023-02-04T00:05:05;103337.38;;;14.98;56.44
64388;BME280;50709;52.648;4.764;2023-02-04T00:07:31;103331.59;;;14.76;58.49
64388;BME280;50709;52.648;4.764;2023-02-04T00:09:56;103336.13;;;14.82;57.77
64388;BME280;50709;52.648;4.764;2023-02-04T00:12:21;103331.66;;;14.78;58.55
64388;BME280;50709;52.648;4.764;2023-02-04T00:14:47;103329.41;;;14.60;58.67
64388;BME280;50709;52.648;4.764;2023-02-04T00:17:12;103339.75;;;14.87;57.87
64388;BME280;50709;52.648;4.764;2023-02-04T00:19:41;103331.41;;;15.05;57.52
64388;BME280;50709;52.648;4.764;2023-02-04T00:22:07;103343.06;;;15.17;57.03
64388;BME280;50709;52.648;4.764;2023-02-04T00:24:33;103343.50;;;14.97;56.96
64388;BME280;50709;52.648;4.764;2023-02-04T00:26:59;103350.25;;;14.87;57.74
64388;BME280;50709;52.648;4.764;2023-02-04T00:29:24;103357.41;;;14.58;58.27
64388;BME280;50709;52.648;4.764;2023-02-04T00:31:50;103345.06;;;14.55;58.09
64388;BME280;50709;52.648;4.764;2023-02-04T00:34:15;103347.31;;;14.73;57.96
64388;BME280;50709;52.648;4.764;2023-02-04T00:36:42;103331.84;;;14.52;58.03
64388;BME280;50709;52.648;4.764;2023-02-04T00:39:08;103348.38;;;14.48;59.28
64388;BME280;50709;52.648;4.764;2023-02-04T00:41:33;103332.78;;;14.54;58.92
64388;BME280;50709;52.648;4.764;2023-02-04T00:43:58;103350.88;;;14.75;58.13
64388;BME280;50709;52.648;4.764;2023-02-04T00:46:24;103345.94;;;14.22;59.03
64388;BME280;50709;52.648;4.764;2023-02-04T00:48:49;103358.00;;;14.14;60.54
64388;BME280;50709;52.648;4.764;2023-02-04T00:51:15;103354.75;;;14.23;60.45
64388;BME280;50709;52.648;4.764;2023-02-04T00:53:40;103355.50;;;13.87;59.47
64388;BME280;50709;52.648;4.764;2023-02-04T00:56:06;103357.94;;;14.11;60.73
64388;BME280;50709;52.648;4.764;2023-02-04T00:58:31;103363.91;;;14.05;59.89
64388;BME280;50709;52.648;4.764;2023-02-04T01:00:56;103343.38;;;13.61;60.40
64388;BME280;50709;52.648;4.764;2023-02-04T01:03:22;103355.00;;;13.70;61.13
64388;BME280;50709;52.648;4.764;2023-02-04T01:05:48;103358.59;;;13.73;61.06
64388;BME280;50709;52.648;4.764;2023-02-04T01:08:13;103352.41;;;14.02;60.43
64388;BME280;50709;52.648;4.764;2023-02-04T01:10:39;103356.56;;;13.93;60.76
64388;BME280;50709;52.648;4.764;2023-02-04T01:13:04;103367.56;;;13.80;60.70
64388;BME280;50709;52.648;4.764;2023-02-04T01:15:30;103377.31;;;13.84;61.26
64388;BME280;50709;52.648;4.764;2023-02-04T01:17:55;103374.69;;;14.15;60.47
64388;BME280;50709;52.648;4.764;2023-02-04T01:20:20;103372.44;;;13.98;60.36
64388;BME280;50709;52.648;4.764;2023-02-04T01:22:46;103391.78;;;14.00;60.50
64388;BME280;50709;52.648;4.764;2023-02-04T01:25:11;103390.28;;;14.10;60.86
64388;BME280;50709;52.648;4.764;2023-02-04T01:27:37;103388.69;;;13.85;61.41
64388;BME280;50709;52.648;4.764;2023-02-04T01:30:04;103401.28;;;13.96;61.18
64388;BME280;50709;52.648;4.764;2023-02-04T01:32:29;103394.81;;;13.84;61.44
64388;BME280;50709;52.648;4.764;2023-02-04T01:34:55;103408.22;;;13.64;61.53
64388;BME280;50709;52.648;4.764;2023-02-04T01:37:20;103398.81;;;13.71;62.13
64388;BME280;50709;52.648;4.764;2023-02-04T01:39:46;103407.63;;;13.73;61.64
64388;BME280;50709;52.648;4.764;2023-02-04T01:42:11;103397.13;;;14.03;61.47
64388;BME280;50709;52.648;4.764;2023-02-04T01:44:36;103422.72;;;13.80;61.11
64388;BME280;50709;52.648;4.764;2023-02-04T01:47:03;103406.41;;;13.61;61.75
64388;BME280;50709;52.648;4.764;2023-02-04T01:49:29;103419.28;;;13.83;61.87
64388;BME280;50709;52.648;4.764;2023-02-04T01:51:55;103429.03;;;13.87;61.38
64388;BME280;50709;52.648;4.764;2023-02-04T01:54:20;103402.97;;;13.64;61.49
64388;BME280;50709;52.648;4.764;2023-02-04T01:56:47;103410.44;;;13.50;62.39
64388;BME280;50709;52.648;4.764;2023-02-04T01:59:15;103385.81;;;13.46;61.41
64388;BME280;50709;52.648;4.764;2023-02-04T02:01:41;103431.75;;;13.90;61.65
64388;BME280;50709;52.648;4.764;2023-02-04T02:04:10;103417.94;;;13.67;61.60
64388;BME280;50709;52.648;4.764;2023-02-04T02:06:38;103401.34;;;13.68;61.29
64388;BME280;50709;52.648;4.764;2023-02-04T02:09:05;103425.91;;;13.70;61.59
64388;BME280;50709;52.648;4.764;2023-02-04T02:11:31;103430.03;;;13.61;62.04
64388;BME280;50709;52.648;4.764;2023-02-04T02:13:57;103419.56;;;13.63;62.16
64388;BME280;50709;52.648;4.764;2023-02-04T02:16:23;103420.47;;;13.63;60.98
64388;BME280;50709;52.648;4.764;2023-02-04T02:18:48;103432.53;;;13.57;61.55
64388;BME280;50709;52.648;4.764;2023-02-04T02:21:18;103449.66;;;13.45;61.88
64388;BME280;50709;52.648;4.764;2023-02-04T02:23:48;103460.59;;;13.32;63.20
64388;BME280;50709;52.648;4.764;2023-02-04T02:26:15;103432.03;;;13.16;62.24
64388;BME280;50709;52.648;4.764;2023-02-04T02:28:41;103453.09;;;13.43;62.38
64388;BME280;50709;52.648;4.764;2023-02-04T02:31:07;103453.16;;;13.44;62.11
64388;BME280;50709;52.648;4.764;2023-02-04T02:33:33;103457.94;;;13.58;62.15
64388;BME280;50709;52.648;4.764;2023-02-04T02:35:59;103455.94;;;13.51;62.74
64388;BME280;50709;52.648;4.764;2023-02-04T02:38:24;103458.25;;;13.67;61.56
64388;BME280;50709;52.648;4.764;2023-02-04T02:40:50;103458.19;;;13.38;62.86
64388;BME280;50709;52.648;4.764;2023-02-04T02:43:19;103463.13;;;13.56;62.42
64388;BME280;50709;52.648;4.764;2023-02-04T02:45:45;103459.88;;;13.36;62.73
64388;BME280;50709;52.648;4.764;2023-02-04T02:48:12;103441.84;;;13.47;62.44
64388;BME280;50709;52.648;4.764;2023-02-04T02:50:37;103443.34;;;13.39;62.34
64388;BME280;50709;52.648;4.764;2023-02-04T02:53:05;103444.63;;;13.26;62.36
64388;BME280;50709;52.648;4.764;2023-02-04T02:55:34;103429.31;;;13.38;62.06
64388;BME280;50709;52.648;4.764;2023-02-04T02:57:59;103460.09;;;13.44;62.32
64388;BME280;50709;52.648;4.764;2023-02-04T03:00:27;103458.69;;;13.28;62.95
64388;BME280;50709;52.648;4.764;2023-02-04T03:03:15;103451.69;;;13.27;63.23
64388;BME280;50709;52.648;4.764;2023-02-04T03:05:45;103452.72;;;13.32;62.79
64388;BME280;50709;52.648;4.764;2023-02-04T03:08:14;103443.56;;;12.93;63.44
64388;BME280;50709;52.648;4.764;2023-02-04T03:10:41;103459.16;;;13.15;63.67
64388;BME280;50709;52.648;4.764;2023-02-04T03:13:07;103449.00;;;13.00;63.50
64388;BME280;50709;52.648;4.764;2023-02-04T03:15:34;103448.59;;;12.87;64.12
64388;BME280;50709;52.648;4.764;2023-02-04T03:17:59;103445.88;;;12.84;64.09
64388;BME280;50709;52.648;4.764;2023-02-04T03:20:27;103455.81;;;12.93;64.84
64388;BME280;50709;52.648;4.764;2023-02-04T03:22:54;103470.31;;;12.83;64.29
64388;BME280;50709;52.648;4.764;2023-02-04T03:25:20;103456.78;;;12.71;64.49
64388;BME280;50709;52.648;4.764;2023-02-04T03:27:49;103462.91;;;12.71;64.29
64388;BME280;50709;52.648;4.764;2023-02-04T03:30:15;103465.47;;;12.70;64.56
64388;BME280;50709;52.648;4.764;2023-02-04T03:32:41;103466.38;;;12.70;64.63
64388;BME280;50709;52.648;4.764;2023-02-04T03:35:06;103463.91;;;12.51;64.82
64388;BME280;50709;52.648;4.764;2023-02-04T03:37:31;103444.91;;;12.32;64.48
64388;BME280;50709;52.648;4.764;2023-02-04T03:39:57;103465.63;;;12.49;65.63
64388;BME280;50709;52.648;4.764;2023-02-04T03:42:22;103443.97;;;12.30;65.47
64388;BME280;50709;52.648;4.764;2023-02-04T03:44:48;103465.38;;;12.42;65.69
64388;BME280;50709;52.648;4.764;2023-02-04T03:47:14;103471.63;;;12.46;65.63
64388;BME280;50709;52.648;4.764;2023-02-04T03:49:39;103489.06;;;12.45;65.33
64388;BME280;50709;52.648;4.764;2023-02-04T03:52:05;103462.72;;;12.41;65.26
64388;BME280;50709;52.648;4.764;2023-02-04T03:54:30;103477.66;;;12.43;65.64
64388;BME280;50709;52.648;4.764;2023-02-04T03:56:57;103480.03;;;12.37;65.32
64388;BME280;50709;52.648;4.764;2023-02-04T03:59:22;103476.88;;;12.46;65.49
64388;BME280;50709;52.648;4.764;2023-02-04T04:01:48;103475.50;;;12.33;65.41
64388;BME280;50709;52.648;4.764;2023-02-04T04:04:13;103482.66;;;12.37;66.01
64388;BME280;50709;52.648;4.764;2023-02-04T04:06:38;103488.81;;;12.38;65.66
64388;BME280;50709;52.648;4.764;2023-02-04T04:09:04;103485.94;;;12.32;65.89
64388;BME280;50709;52.648;4.764;2023-02-04T04:11:30;103480.72;;;12.32;66.13
64388;BME280;50709;52.648;4.764;2023-02-04T04:13:55;103471.50;;;12.19;65.54
64388;BME280;50709;52.648;4.764;2023-02-04T04:16:20;103485.59;;;12.22;65.94
64388;BME280;50709;52.648;4.764;2023-02-04T04:18:46;103487.69;;;12.31;66.61
64388;BME280;50709;52.648;4.764;2023-02-04T04:21:11;103479.28;;;12.17;66.19
64388;BME280;50709;52.648;4.764;2023-02-04T04:23:36;103483.50;;;12.12;65.79
64388;BME280;50709;52.648;4.764;2023-02-04T04:26:02;103486.09;;;12.12;66.74
64388;BME280;50709;52.648;4.764;2023-02-04T04:28:27;103499.00;;;12.07;65.92
64388;BME280;50709;52.648;4.764;2023-02-04T04:30:53;103482.16;;;12.01;67.19
64388;BME280;50709;52.648;4.764;2023-02-04T04:33:18;103495.56;;;12.08;66.45
64388;BME280;50709;52.648;4.764;2023-02-04T04:35:43;103496.09;;;12.00;66.65
64388;BME280;50709;52.648;4.764;2023-02-04T04:38:09;103505.22;;;11.88;66.51
64388;BME280;50709;52.648;4.764;2023-02-04T04:40:34;103508.88;;;11.92;66.99
64388;BME280;50709;52.648;4.764;2023-02-04T04:43:00;103503.94;;;12.00;67.08
64388;BME280;50709;52.648;4.764;2023-02-04T04:45:25;103483.41;;;11.88;66.99
64388;BME280;50709;52.648;4.764;2023-02-04T04:47:50;103499.66;;;12.02;66.29
64388;BME280;50709;52.648;4.764;2023-02-04T04:50:16;103498.44;;;11.93;67.00
64388;BME280;50709;52.648;4.764;2023-02-04T04:52:41;103482.44;;;11.86;67.29
64388;BME280;50709;52.648;4.764;2023-02-04T04:55:07;103493.03;;;11.89;66.66
64388;BME280;50709;52.648;4.764;2023-02-04T04:57:33;103474.94;;;11.72;67.39
64388;BME280;50709;52.648;4.764;2023-02-04T04:59:58;103492.69;;;11.80;67.76
64388;BME280;50709;52.648;4.764;2023-02-04T05:02:23;103490.19;;;11.83;66.91
64388;BME280;50709;52.648;4.764;2023-02-04T05:04:49;103492.97;;;11.87;66.90
64388;BME280;50709;52.648;4.764;2023-02-04T05:07:15;103498.84;;;11.82;67.02
64388;BME280;50709;52.648;4.764;2023-02-04T05:09:40;103480.22;;;11.74;66.96
64388;BME280;50709;52.648;4.764;2023-02-04T05:12:06;103499.50;;;11.76;67.22
64388;BME280;50709;52.648;4.764;2023-02-04T05:14:31;103490.41;;;11.66;67.40
64388;BME280;50709;52.648;4.764;2023-02-04T05:16:56;103508.28;;;11.55;67.21
64388;BME280;50709;52.648;4.764;2023-02-04T05:19:22;103498.59;;;11.75;67.92
64388;BME280;50709;52.648;4.764;2023-02-04T05:21:47;103495.53;;;11.86;67.53
64388;BME280;50709;52.648;4.764;2023-02-04T05:24:13;103506.56;;;12.00;67.16
64388;BME280;50709;52.648;4.764;2023-02-04T05:26:38;103503.69;;;11.93;66.79
64388;BME280;50709;52.648;4.764;2023-02-04T05:29:03;103502.34;;;11.82;67.28
64388;BME280;50709;52.648;4.764;2023-02-04T05:31:29;103490.13;;;11.81;67.02
64388;BME280;50709;52.648;4.764;2023-02-04T05:33:55;103503.78;;;11.95;67.32
64388;BME280;50709;52.648;4.764;2023-02-04T05:36:20;103511.19;;;12.05;66.90
64388;BME280;50709;52.648;4.764;2023-02-04T05:38:46;103528.75;;;12.08;66.65
64388;BME280;50709;52.648;4.764;2023-02-04T05:41:11;103513.97;;;11.89;67.38
64388;BME280;50709;52.648;4.764;2023-02-04T05:43:37;103532.69;;;11.98;67.38
64388;BME280;50709;52.648;4.764;2023-02-04T05:46:03;103523.66;;;11.91;66.83
64388;BME280;50709;52.648;4.764;2023-02-04T05:48:28;103513.16;;;11.90;66.96
64388;BME280;50709;52.648;4.764;2023-02-04T05:50:54;103532.28;;;11.89;67.47
64388;BME280;50709;52.648;4.764;2023-02-04T05:53:19;103537.25;;;11.81;67.30
64388;BME280;50709;52.648;4.764;2023-02-04T05:55:44;103532.06;;;11.83;67.45
64388;BME280;50709;52.648;4.764;2023-02-04T05:58:10;103549.38;;;12.00;67.22
64388;BME280;50709;52.648;4.764;2023-02-04T06:00:35;103530.88;;;11.74;67.05
64388;BME280;50709;52.648;4.764;2023-02-04T06:03:01;103540.59;;;11.77;67.06
64388;BME280;50709;52.648;4.764;2023-02-04T06:05:26;103550.78;;;11.71;67.79
64388;BME280;50709;52.648;4.764;2023-02-04T06:07:51;103553.97;;;11.85;68.01
64388;BME280;50709;52.648;4.764;2023-02-04T06:10:17;103553.03;;;11.83;67.29
64388;BME280;50709;52.648;4.764;2023-02-04T06:12:43;103557.56;;;11.87;67.38
64388;BME280;50709;52.648;4.764;2023-02-04T06:15:08;103563.00;;;11.93;67.34
64388;BME280;50709;52.648;4.764;2023-02-04T06:17:34;103563.50;;;11.83;67.19
64388;BME280;50709;52.648;4.764;2023-02-04T06:20:00;103566.63;;;11.74;67.47
64388;BME280;50709;52.648;4.764;2023-02-04T06:22:25;103566.13;;;11.83;68.07
64388;BME280;50709;52.648;4.764;2023-02-04T06:24:51;103562.22;;;11.73;67.35
64388;BME280;50709;52.648;4.764;2023-02-04T06:27:16;103516.72;;;11.48;67.28
64388;BME280;50709;52.648;4.764;2023-02-04T06:29:48;103571.22;;;11.80;67.80
64388;BME280;50709;52.648;4.764;2023-02-04T06:32:15;103570.16;;;11.74;67.60
64388;BME280;50709;52.648;4.764;2023-02-04T06:34:40;103578.56;;;11.67;67.13
64388;BME280;50709;52.648;4.764;2023-02-04T06:37:05;103578.81;;;11.73;67.21
64388;BME280;50709;52.648;4.764;2023-02-04T06:39:31;103570.59;;;11.64;67.66
64388;BME280;50709;52.648;4.764;2023-02-04T06:41:56;103590.06;;;11.71;67.77
64388;BME280;50709;52.648;4.764;2023-02-04T06:44:22;103577.84;;;11.71;67.67
64388;BME280;50709;52.648;4.764;2023-02-04T06:46:47;103581.75;;;11.81;66.89
64388;BME280;50709;52.648;4.764;2023-02-04T06:49:12;103590.56;;;11.83;67.73
64388;BME280;50709;52.648;4.764;2023-02-04T06:51:38;103589.78;;;11.86;67.63
64388;BME280;50709;52.648;4.764;2023-02-04T06:54:03;103575.75;;;11.84;67.11
64388;BME280;50709;52.648;4.764;2023-02-04T06:56:29;103594.25;;;11.88;67.32
64388;BME280;50709;52.648;4.764;2023-02-04T06:58:54;103584.06;;;11.73;67.39
64388;BME280;50709;52.648;4.764;2023-02-04T07:01:19;103591.31;;;11.81;68.10
64388;BME280;50709;52.648;4.764;2023-02-04T07:03:45;103595.75;;;11.82;68.01
64388;BME280;50709;52.648;4.764;2023-02-04T07:06:11;103583.47;;;11.81;67.97
64388;BME280;50709;52.648;4.764;2023-02-04T07:08:36;103569.13;;;11.71;67.97
64388;BME280;50709;52.648;4.764;2023-02-04T07:11:01;103606.47;;;11.88;67.96
64388;BME280;50709;52.648;4.764;2023-02-04T07:13:27;103607.25;;;11.85;67.90
64388;BME280;50709;52.648;4.764;2023-02-04T07:15:52;103624.38;;;11.98;67.43
64388;BME280;50709;52.648;4.764;2023-02-04T07:18:17;103625.25;;;11.77;67.71
64388;BME280;50709;52.648;4.764;2023-02-04T07:20:44;103623.06;;;11.67;67.97
64388;BME280;50709;52.648;4.764;2023-02-04T07:23:09;103626.06;;;11.76;68.35
64388;BME280;50709;52.648;4.764;2023-02-04T07:25:35;103607.50;;;11.70;67.96
64388;BME280;50709;52.648;4.764;2023-02-04T07:28:00;103628.84;;;11.80;67.90
64388;BME280;50709;52.648;4.764;2023-02-04T07:30:27;103645.03;;;11.71;68.24
64388;BME280;50709;52.648;4.764;2023-02-04T07:32:53;103622.81;;;11.82;68.07
64388;BME280;50709;52.648;4.764;2023-02-04T07:35:18;103651.22;;;12.14;67.82
64388;BME280;50709;52.648;4.764;2023-02-04T07:37:44;103663.38;;;12.13;67.62
64388;BME280;50709;52.648;4.764;2023-02-04T07:40:10;103658.69;;;12.04;67.27
64388;BME280;50709;52.648;4.764;2023-02-04T07:42:36;103658.34;;;11.97;67.16
64388;BME280;50709;52.648;4.764;2023-02-04T07:45:01;103669.94;;;12.02;67.24
64388;BME280;50709;52.648;4.764;2023-02-04T07:47:27;103661.38;;;11.86;67.95
64388;BME280;50709;52.648;4.764;2023-02-04T07:49:52;103663.59;;;11.97;68.41
64388;BME280;50709;52.648;4.764;2023-02-04T07:52:21;103668.84;;;11.97;67.83
64388;BME280;50709;52.648;4.764;2023-02-04T07:54:47;103673.63;;;12.07;68.00
64388;BME280;50709;52.648;4.764;2023-02-04T07:57:12;103654.44;;;11.87;67.30
64388;BME280;50709;52.648;4.764;2023-02-04T07:59:38;103672.00;;;11.89;67.81
64388;BME280;50709;52.648;4.764;2023-02-04T08:02:03;103672.00;;;11.89;67.40
64388;BME280;50709;52.648;4.764;2023-02-04T08:04:28;103679.81;;;11.88;67.96
64388;BME280;50709;52.648;4.764;2023-02-04T08:06:54;103693.00;;;11.91;68.17
64388;BME280;50709;52.648;4.764;2023-02-04T08:09:19;103687.13;;;11.95;67.82
64388;BME280;50709;52.648;4.764;2023-02-04T08:11:44;103683.78;;;11.99;67.40
64388;BME280;50709;52.648;4.764;2023-02-04T08:14:10;103697.22;;;12.07;67.74
64388;BME280;50709;52.648;4.764;2023-02-04T08:16:35;103687.50;;;12.04;67.65
64388;BME280;50709;52.648;4.764;2023-02-04T08:19:00;103700.94;;;12.12;67.87
64388;BME280;50709;52.648;4.764;2023-02-04T08:21:26;103683.47;;;11.93;67.77
64388;BME280;50709;52.648;4.764;2023-02-04T08:23:51;103696.88;;;11.99;67.56
64388;BME280;50709;52.648;4.764;2023-02-04T08:26:17;103694.53;;;12.05;67.75
64388;BME280;50709;52.648;4.764;2023-02-04T08:28:42;103693.84;;;12.09;67.73
64388;BME280;50709;52.648;4.764;2023-02-04T08:31:08;103684.81;;;12.03;67.68
64388;BME280;50709;52.648;4.764;2023-02-04T08:33:37;103687.81;;;12.12;67.75
64388;BME280;50709;52.648;4.764;2023-02-04T08:36:04;103693.13;;;12.14;67.41
64388;BME280;50709;52.648;4.764;2023-02-04T08:38:29;103683.50;;;12.35;66.67
64388;BME280;50709;52.648;4.764;2023-02-04T08:40:55;103687.94;;;12.59;66.03
64388;BME280;50709;52.648;4.764;2023-02-04T08:43:20;103700.22;;;12.83;65.82
64388;BME280;50709;52.648;4.764;2023-02-04T08:45:45;103689.72;;;13.05;64.82
64388;BME280;50709;52.648;4.764;2023-02-04T08:48:11;103697.22;;;13.19;64.66
64388;BME280;50709;52.648;4.764;2023-02-04T08:50:36;103707.06;;;13.49;63.71
64388;BME280;50709;52.648;4.764;2023-02-04T08:53:01;103678.22;;;13.50;63.00
64388;BME280;50709;52.648;4.764;2023-02-04T08:55:27;103697.06;;;14.16;61.38
64388;BME280;50709;52.648;4.764;2023-02-04T08:57:52;103704.31;;;14.23;60.78
64388;BME280;50709;52.648;4.764;2023-02-04T09:00:18;103710.06;;;14.38;60.94
64388;BME280;50709;52.648;4.764;2023-02-04T09:02:43;103711.94;;;14.42;60.08
64388;BME280;50709;52.648;4.764;2023-02-04T09:05:09;103713.41;;;14.61;59.49
64388;BME280;50709;52.648;4.764;2023-02-04T09:07:34;103709.31;;;14.42;59.95
64388;BME280;50709;52.648;4.764;2023-02-04T09:10:00;103719.50;;;14.32;60.01
64388;BME280;50709;52.648;4.764;2023-02-04T09:12:25;103660.47;;;14.22;59.63
64388;BME280;50709;52.648;4.764;2023-02-04T09:14:51;103718.22;;;14.46;59.39
64388;BME280;50709;52.648;4.764;2023-02-04T09:17:16;103721.72;;;14.19;59.63
64388;BME280;50709;52.648;4.764;2023-02-04T09:19:42;103720.66;;;14.41;59.75
64388;BME280;50709;52.648;4.764;2023-02-04T09:22:27;103722.84;;;14.55;58.71
64388;BME280;50709;52.648;4.764;2023-02-04T09:24:53;103723.91;;;14.60;58.37
64388;BME280;50709;52.648;4.764;2023-02-04T09:27:19;103729.78;;;14.78;58.07
64388;BME280;50709;52.648;4.764;2023-02-04T09:29:45;103737.28;;;14.66;57.57
64388;BME280;50709;52.648;4.764;2023-02-04T09:32:10;103729.91;;;14.56;58.55
64388;BME280;50709;52.648;4.764;2023-02-04T09:34:36;103743.50;;;14.42;58.53
64388;BME280;50709;52.648;4.764;2023-02-04T09:37:01;103700.47;;;13.86;58.95
64388;BME280;50709;52.648;4.764;2023-02-04T09:39:27;103736.44;;;13.88;60.56
64388;BME280;50709;52.648;4.764;2023-02-04T09:41:53;103750.63;;;13.68;60.60
64388;BME280;50709;52.648;4.764;2023-02-04T09:44:20;103757.72;;;13.46;59.62
64388;BME280;50709;52.648;4.764;2023-02-04T09:46:52;103751.34;;;13.39;63.06
64388;BME280;50709;52.648;4.764;2023-02-04T09:49:17;103752.63;;;13.28;63.42
64388;BME280;50709;52.648;4.764;2023-02-04T09:51:44;103731.72;;;13.29;63.36
64388;BME280;50709;52.648;4.764;2023-02-04T09:54:13;103751.34;;;13.17;61.04
64388;BME280;50709;52.648;4.764;2023-02-04T09:56:39;103720.72;;;13.40;62.40
64388;BME280;50709;52.648;4.764;2023-02-04T09:59:15;103760.00;;;13.61;62.30
64388;BME280;50709;52.648;4.764;2023-02-04T10:02:01;103773.88;;;13.11;61.67
64388;BME280;50709;52.648;4.764;2023-02-04T10:04:27;103756.72;;;12.74;62.90
64388;BME280;50709;52.648;4.764;2023-02-04T10:06:54;103763.03;;;13.02;64.00
64388;BME280;50709;52.648;4.764;2023-02-04T10:09:22;103759.31;;;14.44;61.48
64388;BME280;50709;52.648;4.764;2023-02-04T10:11:48;103762.06;;;15.32;59.52
64388;BME280;50709;52.648;4.764;2023-02-04T10:14:22;103760.25;;;15.61;58.17
64388;BME280;50709;52.648;4.764;2023-02-04T10:16:56;103767.31;;;15.62;57.42
64388;BME280;50709;52.648;4.764;2023-02-04T10:19:22;103765.72;;;15.69;55.32
64388;BME280;50709;52.648;4.764;2023-02-04T10:21:48;103780.53;;;15.96;56.75
64388;BME280;50709;52.648;4.764;2023-02-04T10:24:20;103779.00;;;16.04;55.02
64388;BME280;50709;52.648;4.764;2023-02-04T10:26:47;103783.13;;;15.32;57.19
64388;BME280;50709;52.648;4.764;2023-02-04T10:29:16;103740.63;;;14.62;56.87
64388;BME280;50709;52.648;4.764;2023-02-04T10:31:48;103783.00;;;14.99;57.18
64388;BME280;50709;52.648;4.764;2023-02-04T10:36:43;103780.06;;;14.88;56.56
64388;BME280;50709;52.648;4.764;2023-02-04T10:41:37;103779.88;;;14.28;58.04
64388;BME280;50709;52.648;4.764;2023-02-04T10:44:10;103779.34;;;14.39;59.40
64388;BME280;50709;52.648;4.764;2023-02-04T10:46:36;103769.91;;;14.45;57.35
64388;BME280;50709;52.648;4.764;2023-02-04T10:49:14;103760.88;;;14.63;56.53
64388;BME280;50709;52.648;4.764;2023-02-04T10:51:40;103770.59;;;14.94;56.80
64388;BME280;50709;52.648;4.764;2023-02-04T10:54:11;103766.06;;;14.36;58.20
64388;BME280;50709;52.648;4.764;2023-02-04T10:57:16;103775.78;;;14.91;56.34
64388;BME280;50709;52.648;4.764;2023-02-04T10:59:43;103759.81;;;15.16;56.51
64388;BME280;50709;52.648;4.764;2023-02-04T11:02:44;103764.91;;;15.40;56.37
64388;BME280;50709;52.648;4.764;2023-02-04T11:05:16;103765.06;;;14.85;56.22
64388;BME280;50709;52.648;4.764;2023-02-04T11:07:43;103766.28;;;15.25;56.37
64388;BME280;50709;52.648;4.764;2023-02-04T11:10:32;103756.34;;;15.47;54.70
64388;BME280;50709;52.648;4.764;2023-02-04T11:13:01;103763.25;;;15.43;56.17
64388;BME280;50709;52.648;4.764;2023-02-04T11:18:04;103749.91;;;17.57;52.20
64388;BME280;50709;52.648;4.764;2023-02-04T11:20:31;103756.69;;;17.00;50.08
64388;BME280;50709;52.648;4.764;2023-02-04T11:25:40;103745.19;;;17.40;52.22
64388;BME280;50709;52.648;4.764;2023-02-04T11:28:13;103762.63;;;17.76;52.77
64388;BME280;50709;52.648;4.764;2023-02-04T11:30:39;103749.84;;;18.53;50.98
64388;BME280;50709;52.648;4.764;2023-02-04T11:33:18;103744.63;;;18.61;51.01
64388;BME280;50709;52.648;4.764;2023-02-04T11:36:03;103739.59;;;18.78;49.40
64388;BME280;50709;52.648;4.764;2023-02-04T11:38:29;103753.72;;;18.78;50.15
64388;BME280;50709;52.648;4.764;2023-02-04T11:40:57;103764.00;;;18.57;49.40
64388;BME280;50709;52.648;4.764;2023-02-04T11:43:23;103746.97;;;18.99;49.52
64388;BME280;50709;52.648;4.764;2023-02-04T11:46:00;103755.28;;;19.30;48.75
64388;BME280;50709;52.648;4.764;2023-02-04T11:48:26;103756.41;;;19.49;50.10
64388;BME280;50709;52.648;4.764;2023-02-04T11:50:59;103764.63;;;19.74;49.52
64388;BME280;50709;52.648;4.764;2023-02-04T11:53:30;103723.59;;;20.31;48.71
64388;BME280;50709;52.648;4.764;2023-02-04T11:55:56;103743.50;;;21.06;46.87
64388;BME280;50709;52.648;4.764;2023-02-04T11:58:22;103756.78;;;21.08;46.89
64388;BME280;50709;52.648;4.764;2023-02-04T12:00:53;103745.75;;;20.37;47.46
64388;BME280;50709;52.648;4.764;2023-02-04T12:03:28;103727.88;;;20.12;48.72
64388;BME280;50709;52.648;4.764;2023-02-04T12:05:55;103754.41;;;20.14;47.88
64388;BME280;50709;52.648;4.764;2023-02-04T12:11:09;103766.22;;;19.59;49.86
64388;BME280;50709;52.648;4.764;2023-02-04T12:13:47;103771.66;;;19.72;48.68
64388;BME280;50709;52.648;4.764;2023-02-04T12:16:13;103765.13;;;19.37;50.20
64388;BME280;50709;52.648;4.764;2023-02-04T12:18:39;103763.66;;;19.64;49.77
64388;BME280;50709;52.648;4.764;2023-02-04T12:21:04;103760.09;;;18.90;51.07
64388;BME280;50709;52.648;4.764;2023-02-04T12:23:30;103765.56;;;19.02;50.46
64388;BME280;50709;52.648;4.764;2023-02-04T12:25:56;103762.16;;;18.51;50.62
64388;BME280;50709;52.648;4.764;2023-02-04T12:28:22;103767.47;;;18.53;51.90
64388;BME280;50709;52.648;4.764;2023-02-04T12:30:47;103762.72;;;17.37;53.96
64388;BME280;50709;52.648;4.764;2023-02-04T12:33:13;103780.97;;;17.69;54.09
64388;BME280;50709;52.648;4.764;2023-02-04T12:35:39;103774.25;;;17.86;54.54
64388;BME280;50709;52.648;4.764;2023-02-04T12:38:04;103765.91;;;18.67;52.56
64388;BME280;50709;52.648;4.764;2023-02-04T12:40:30;103758.97;;;18.75;52.72
64388;BME280;50709;52.648;4.764;2023-02-04T12:42:55;103751.38;;;19.75;51.16
64388;BME280;50709;52.648;4.764;2023-02-04T12:45:21;103755.09;;;19.90;50.47
64388;BME280;50709;52.648;4.764;2023-02-04T12:47:46;103759.59;;;19.19;51.69
64388;BME280;50709;52.648;4.764;2023-02-04T12:50:14;103750.59;;;19.06;50.63
64388;BME280;50709;52.648;4.764;2023-02-04T12:52:50;103749.97;;;19.27;52.11
64388;BME280;50709;52.648;4.764;2023-02-04T12:55:15;103749.09;;;19.28;52.13
64388;BME280;50709;52.648;4.764;2023-02-04T12:57:41;103759.19;;;18.32;53.82
64388;BME280;50709;52.648;4.764;2023-02-04T13:00:07;103745.38;;;19.13;52.52